sensor_id;sensor_type;location;lat;lon;timestamp;pressure;altitude;pressure_sealevel;temperature;humidity
59391;BME280;53405;57.012;40.984;2023-03-04T00:01:27;98315.09;;;-1.44;89.78
59391;BME280;53405;57.012;40.984;2023-03-04T00:04:16;98315.59;;;-1.40;88.69
59391;BME280;53405;57.012;40.984;2023-03-04T00:07:04;98316.19;;;-1.47;88.56
59391;BME280;53405;57.012;40.984;2023-03-04T00:09:52;98317.56;;;-1.52;88.83
59391;BME280;53405;57.012;40.984;2023-03-04T00:12:39;98316.44;;;-1.40;88.74
59391;BME280;53405;57.012;40.984;2023-03-04T00:15:27;98309.50;;;-1.39;88.25
59391;BME280;53405;57.012;40.984;2023-03-04T00:18:14;98307.00;;;-1.31;89.03
59391;BME280;53405;57.012;40.984;2023-03-04T00:21:02;98315.19;;;-1.36;87.95
59391;BME280;53405;57.012;40.984;2023-03-04T00:23:50;98308.69;;;-1.40;88.18
59391;BME280;53405;57.012;40.984;2023-03-04T00:26:37;98308.69;;;-1.40;88.21
59391;BME280;53405;57.012;40.984;2023-03-04T00:29:25;98300.66;;;-1.37;89.04
59391;BME280;53405;57.012;40.984;2023-03-04T00:32:12;98304.19;;;-1.38;88.04
59391;BME280;53405;57.012;40.984;2023-03-04T00:35:00;98290.66;;;-1.50;88.04
59391;BME280;53405;57.012;40.984;2023-03-04T00:37:49;98287.72;;;-1.65;88.80
59391;BME280;53405;57.012;40.984;2023-03-04T00:40:36;98289.91;;;-1.70;88.86
59391;BME280;53405;57.012;40.984;2023-03-04T00:43:24;98293.19;;;-1.77;89.73
59391;BME280;53405;57.012;40.984;2023-03-04T00:46:11;98297.25;;;-1.65;90.18
59391;BME280;53405;57.012;40.984;2023-03-04T00:48:59;98298.00;;;-1.55;89.38
59391;BME280;53405;57.012;40.984;2023-03-04T00:51:46;98292.41;;;-1.50;89.59
59391;BME280;53405;57.012;40.984;2023-03-04T00:54:34;98288.78;;;-1.57;88.94
59391;BME280;53405;57.012;40.984;2023-03-04T00:57:21;98282.44;;;-1.73;89.33
59391;BME280;53405;57.012;40.984;2023-03-04T01:00:10;98274.03;;;-1.75;89.81
59391;BME280;53405;57.012;40.984;2023-03-04T01:02:58;98284.47;;;-1.67;89.60
59391;BME280;53405;57.012;40.984;2023-03-04T01:05:45;98282.59;;;-1.74;89.52
59391;BME280;53405;57.012;40.984;2023-03-04T01:08:33;98286.66;;;-1.72;89.33
59391;BME280;53405;57.012;40.984;2023-03-04T01:11:20;98290.06;;;-1.71;89.72
59391;BME280;53405;57.012;40.984;2023-03-04T01:14:08;98285.84;;;-1.72;89.38
59391;BME280;53405;57.012;40.984;2023-03-04T01:16:56;98285.84;;;-1.72;89.68
59391;BME280;53405;57.012;40.984;2023-03-04T01:19:44;98282.03;;;-1.68;89.23
59391;BME280;53405;57.012;40.984;2023-03-04T01:22:31;98284.75;;;-1.70;89.33
59391;BME280;53405;57.012;40.984;2023-03-04T01:25:19;98269.13;;;-1.68;90.10
59391;BME280;53405;57.012;40.984;2023-03-04T01:28:07;98279.31;;;-1.67;89.14
59391;BME280;53405;57.012;40.984;2023-03-04T01:30:54;98274.16;;;-1.67;89.10
59391;BME280;53405;57.012;40.984;2023-03-04T01:33:43;98285.41;;;-1.68;89.02
59391;BME280;53405;57.012;40.984;2023-03-04T01:36:30;98275.47;;;-1.63;89.25
59391;BME280;53405;57.012;40.984;2023-03-04T01:39:18;98275.59;;;-1.64;89.02
59391;BME280;53405;57.012;40.984;2023-03-04T01:42:14;98268.50;;;-1.52;88.95
59391;BME280;53405;57.012;40.984;2023-03-04T01:45:05;98262.69;;;-1.64;88.57
59391;BME280;53405;57.012;40.984;2023-03-04T01:47:53;98269.66;;;-1.65;88.45
59391;BME280;53405;57.012;40.984;2023-03-04T01:50:41;98263.44;;;-1.82;89.46
59391;BME280;53405;57.012;40.984;2023-03-04T01:53:29;98270.59;;;-1.66;88.95
59391;BME280;53405;57.012;40.984;2023-03-04T01:56:33;98262.19;;;-1.68;89.12
59391;BME280;53405;57.012;40.984;2023-03-04T01:59:26;98270.78;;;-1.77;89.42
59391;BME280;53405;57.012;40.984;2023-03-04T02:02:16;98260.53;;;-1.59;88.97
59391;BME280;53405;57.012;40.984;2023-03-04T02:05:04;98270.84;;;-1.59;88.53
59391;BME280;53405;57.012;40.984;2023-03-04T02:07:52;98266.25;;;-1.37;89.33
59391;BME280;53405;57.012;40.984;2023-03-04T02:10:41;98264.56;;;-1.47;88.49
59391;BME280;53405;57.012;40.984;2023-03-04T02:13:50;98267.13;;;-1.47;87.95
59391;BME280;53405;57.012;40.984;2023-03-04T02:16:39;98265.66;;;-1.49;88.07
59391;BME280;53405;57.012;40.984;2023-03-04T02:19:49;98261.97;;;-1.47;89.03
59391;BME280;53405;57.012;40.984;2023-03-04T02:22:45;98258.19;;;-1.24;88.25
59391;BME280;53405;57.012;40.984;2023-03-04T02:25:49;98263.63;;;-1.28;87.61
59391;BME280;53405;57.012;40.984;2023-03-04T02:28:40;98252.41;;;-1.36;87.10
59391;BME280;53405;57.012;40.984;2023-03-04T02:31:34;98251.66;;;-1.56;87.62
59391;BME280;53405;57.012;40.984;2023-03-04T02:34:34;98242.88;;;-1.64;87.99
59391;BME280;53405;57.012;40.984;2023-03-04T02:37:23;98243.44;;;-1.70;88.46
59391;BME280;53405;57.012;40.984;2023-03-04T02:40:22;98247.25;;;-1.74;89.06
59391;BME280;53405;57.012;40.984;2023-03-04T02:43:11;98239.59;;;-1.66;88.75
59391;BME280;53405;57.012;40.984;2023-03-04T02:45:58;98233.41;;;-1.73;88.72
59391;BME280;53405;57.012;40.984;2023-03-04T02:48:46;98224.63;;;-1.90;88.96
59391;BME280;53405;57.012;40.984;2023-03-04T02:51:34;98227.59;;;-1.75;88.73
59391;BME280;53405;57.012;40.984;2023-03-04T02:54:23;98224.16;;;-1.75;88.51
59391;BME280;53405;57.012;40.984;2023-03-04T02:57:12;98227.16;;;-1.70;88.48
59391;BME280;53405;57.012;40.984;2023-03-04T03:00:03;98219.38;;;-1.60;88.38
59391;BME280;53405;57.012;40.984;2023-03-04T03:02:51;98205.47;;;-1.59;89.01
59391;BME280;53405;57.012;40.984;2023-03-04T03:05:40;98201.81;;;-1.57;88.32
59391;BME280;53405;57.012;40.984;2023-03-04T03:08:27;98213.63;;;-1.54;88.47
59391;BME280;53405;57.012;40.984;2023-03-04T03:11:15;98214.22;;;-1.42;88.38
59391;BME280;53405;57.012;40.984;2023-03-04T03:14:04;98190.56;;;-1.38;88.30
59391;BME280;53405;57.012;40.984;2023-03-04T03:16:52;98194.72;;;-1.27;87.79
59391;BME280;53405;57.012;40.984;2023-03-04T03:19:40;98187.53;;;-1.51;88.07
59391;BME280;53405;57.012;40.984;2023-03-04T03:22:29;98174.66;;;-1.61;87.92
59391;BME280;53405;57.012;40.984;2023-03-04T03:25:17;98182.66;;;-1.54;88.19
59391;BME280;53405;57.012;40.984;2023-03-04T03:28:05;98174.75;;;-1.53;88.08
59391;BME280;53405;57.012;40.984;2023-03-04T03:30:53;98179.56;;;-1.68;88.61
59391;BME280;53405;57.012;40.984;2023-03-04T03:33:40;98156.78;;;-1.72;88.83
59391;BME280;53405;57.012;40.984;2023-03-04T03:36:28;98178.91;;;-1.70;89.19
59391;BME280;53405;57.012;40.984;2023-03-04T03:39:15;98168.16;;;-1.65;88.97
59391;BME280;53405;57.012;40.984;2023-03-04T03:42:04;98169.63;;;-1.63;88.34
59391;BME280;53405;57.012;40.984;2023-03-04T03:44:51;98184.97;;;-1.61;88.21
59391;BME280;53405;57.012;40.984;2023-03-04T03:47:38;98174.91;;;-1.54;87.55
59391;BME280;53405;57.012;40.984;2023-03-04T03:50:26;98164.59;;;-1.64;88.57
59391;BME280;53405;57.012;40.984;2023-03-04T03:53:15;98166.00;;;-1.70;89.06
59391;BME280;53405;57.012;40.984;2023-03-04T03:56:04;98174.63;;;-1.51;89.26
59391;BME280;53405;57.012;40.984;2023-03-04T03:58:52;98146.16;;;-1.69;88.42
59391;BME280;53405;57.012;40.984;2023-03-04T04:01:40;98152.88;;;-1.76;88.49
59391;BME280;53405;57.012;40.984;2023-03-04T04:04:27;98171.31;;;-1.71;88.42
59391;BME280;53405;57.012;40.984;2023-03-04T04:07:15;98147.28;;;-1.72;88.38
59391;BME280;53405;57.012;40.984;2023-03-04T04:10:04;98165.88;;;-1.50;88.72
59391;BME280;53405;57.012;40.984;2023-03-04T04:12:51;98154.63;;;-1.49;87.82
59391;BME280;53405;57.012;40.984;2023-03-04T04:15:39;98133.56;;;-1.72;87.63
59391;BME280;53405;57.012;40.984;2023-03-04T04:18:27;98156.06;;;-1.65;87.97
59391;BME280;53405;57.012;40.984;2023-03-04T04:21:14;98148.03;;;-1.61;87.87
59391;BME280;53405;57.012;40.984;2023-03-04T04:24:02;98128.25;;;-1.71;87.85
59391;BME280;53405;57.012;40.984;2023-03-04T04:26:49;98155.41;;;-1.67;88.10
59391;BME280;53405;57.012;40.984;2023-03-04T04:29:36;98139.06;;;-1.57;87.88
59391;BME280;53405;57.012;40.984;2023-03-04T04:32:25;98140.38;;;-1.53;87.06
59391;BME280;53405;57.012;40.984;2023-03-04T04:35:12;98131.38;;;-1.49;87.55
59391;BME280;53405;57.012;40.984;2023-03-04T04:38:00;98135.13;;;-1.43;87.02
59391;BME280;53405;57.012;40.984;2023-03-04T04:40:47;98132.94;;;-1.38;86.62
59391;BME280;53405;57.012;40.984;2023-03-04T04:43:35;98122.44;;;-1.55;86.93
59391;BME280;53405;57.012;40.984;2023-03-04T04:46:22;98133.97;;;-1.31;86.16
59391;BME280;53405;57.012;40.984;2023-03-04T04:49:10;98133.53;;;-1.27;87.00
59391;BME280;53405;57.012;40.984;2023-03-04T04:51:57;98134.28;;;-1.16;85.25
59391;BME280;53405;57.012;40.984;2023-03-04T04:54:45;98138.03;;;-1.29;85.94
59391;BME280;53405;57.012;40.984;2023-03-04T04:57:33;98133.53;;;-1.27;85.35
59391;BME280;53405;57.012;40.984;2023-03-04T05:00:20;98142.09;;;-1.26;85.51
59391;BME280;53405;57.012;40.984;2023-03-04T05:03:08;98138.47;;;-1.51;86.49
59391;BME280;53405;57.012;40.984;2023-03-04T05:05:56;98123.63;;;-1.49;86.75
59391;BME280;53405;57.012;40.984;2023-03-04T05:08:44;98137.28;;;-1.39;86.27
59391;BME280;53405;57.012;40.984;2023-03-04T05:11:31;98135.00;;;-1.24;86.15
59391;BME280;53405;57.012;40.984;2023-03-04T05:14:21;98134.13;;;-1.15;86.19
59391;BME280;53405;57.012;40.984;2023-03-04T05:17:09;98136.31;;;-1.02;85.09
59391;BME280;53405;57.012;40.984;2023-03-04T05:19:56;98115.59;;;-1.28;85.35
59391;BME280;53405;57.012;40.984;2023-03-04T05:22:44;98140.16;;;-1.06;84.56
59391;BME280;53405;57.012;40.984;2023-03-04T05:25:31;98120.72;;;-0.92;83.62
59391;BME280;53405;57.012;40.984;2023-03-04T05:28:20;98135.94;;;-0.89;83.82
59391;BME280;53405;57.012;40.984;2023-03-04T05:31:08;98119.81;;;-0.83;82.49
59391;BME280;53405;57.012;40.984;2023-03-04T05:33:56;98130.63;;;-0.87;82.93
59391;BME280;53405;57.012;40.984;2023-03-04T05:36:43;98110.72;;;-1.13;83.05
59391;BME280;53405;57.012;40.984;2023-03-04T05:39:31;98128.41;;;-1.00;83.34
59391;BME280;53405;57.012;40.984;2023-03-04T05:42:18;98116.66;;;-0.95;84.27
59391;BME280;53405;57.012;40.984;2023-03-04T05:45:07;98117.53;;;-0.86;83.98
59391;BME280;53405;57.012;40.984;2023-03-04T05:47:56;98119.56;;;-0.98;83.61
59391;BME280;53405;57.012;40.984;2023-03-04T05:50:43;98126.53;;;-0.90;82.12
59391;BME280;53405;57.012;40.984;2023-03-04T05:53:31;98112.97;;;-0.92;82.16
59391;BME280;53405;57.012;40.984;2023-03-04T05:56:19;98120.94;;;-0.85;82.37
59391;BME280;53405;57.012;40.984;2023-03-04T05:59:07;98121.22;;;-0.88;81.70
59391;BME280;53405;57.012;40.984;2023-03-04T06:01:55;98119.78;;;-0.91;81.92
59391;BME280;53405;57.012;40.984;2023-03-04T06:04:42;98119.88;;;-1.01;82.29
59391;BME280;53405;57.012;40.984;2023-03-04T06:07:30;98120.63;;;-1.08;82.83
59391;BME280;53405;57.012;40.984;2023-03-04T06:10:18;98124.59;;;-0.96;84.31
59391;BME280;53405;57.012;40.984;2023-03-04T06:13:06;98126.53;;;-0.90;82.05
59391;BME280;53405;57.012;40.984;2023-03-04T06:15:55;98121.16;;;-0.79;82.78
59391;BME280;53405;57.012;40.984;2023-03-04T06:18:44;98104.38;;;-0.75;82.20
59391;BME280;53405;57.012;40.984;2023-03-04T06:21:31;98109.28;;;-0.37;80.70
59391;BME280;53405;57.012;40.984;2023-03-04T06:24:20;98102.72;;;-0.23;80.21
59391;BME280;53405;57.012;40.984;2023-03-04T06:27:07;98114.91;;;-0.42;81.82
59391;BME280;53405;57.012;40.984;2023-03-04T06:29:55;98107.41;;;-0.53;81.12
59391;BME280;53405;57.012;40.984;2023-03-04T06:32:42;98107.47;;;-0.45;81.71
59391;BME280;53405;57.012;40.984;2023-03-04T06:35:34;98110.44;;;-0.31;80.23
59391;BME280;53405;57.012;40.984;2023-03-04T06:38:22;98108.97;;;-0.34;82.64
59391;BME280;53405;57.012;40.984;2023-03-04T06:41:11;98105.75;;;-0.36;81.46
59391;BME280;53405;57.012;40.984;2023-03-04T06:44:00;98100.31;;;-0.51;80.99
59391;BME280;53405;57.012;40.984;2023-03-04T06:46:48;98110.63;;;-0.25;82.31
59391;BME280;53405;57.012;40.984;2023-03-04T06:49:36;98113.44;;;-0.10;79.61
59391;BME280;53405;57.012;40.984;2023-03-04T06:52:24;98092.13;;;0.05;79.29
59391;BME280;53405;57.012;40.984;2023-03-04T06:55:19;98110.16;;;0.14;78.55
59391;BME280;53405;57.012;40.984;2023-03-04T06:58:06;98097.22;;;0.14;77.72
59391;BME280;53405;57.012;40.984;2023-03-04T07:00:54;98088.16;;;0.27;79.47
59391;BME280;53405;57.012;40.984;2023-03-04T07:03:43;98101.34;;;0.66;77.75
59391;BME280;53405;57.012;40.984;2023-03-04T07:06:31;98087.56;;;0.66;79.79
59391;BME280;53405;57.012;40.984;2023-03-04T07:09:18;98101.69;;;0.63;77.64
59391;BME280;53405;57.012;40.984;2023-03-04T07:12:06;98066.03;;;0.65;78.46
59391;BME280;53405;57.012;40.984;2023-03-04T07:14:54;98089.22;;;0.92;75.90
59391;BME280;53405;57.012;40.984;2023-03-04T07:17:41;98089.84;;;1.02;75.09
59391;BME280;53405;57.012;40.984;2023-03-04T07:20:29;98076.72;;;0.70;76.00
59391;BME280;53405;57.012;40.984;2023-03-04T07:23:18;98086.13;;;0.88;74.99
59391;BME280;53405;57.012;40.984;2023-03-04T07:26:06;98059.56;;;0.94;75.31
59391;BME280;53405;57.012;40.984;2023-03-04T07:28:54;98066.78;;;1.32;74.83
59391;BME280;53405;57.012;40.984;2023-03-04T07:31:43;98060.03;;;0.98;74.78
59391;BME280;53405;57.012;40.984;2023-03-04T07:34:31;98072.69;;;0.93;74.92
59391;BME280;53405;57.012;40.984;2023-03-04T07:37:18;98073.66;;;0.92;76.54
59391;BME280;53405;57.012;40.984;2023-03-04T07:40:07;98070.25;;;1.07;77.58
59391;BME280;53405;57.012;40.984;2023-03-04T07:42:55;98049.59;;;1.31;72.06
59391;BME280;53405;57.012;40.984;2023-03-04T07:45:45;98069.00;;;1.59;72.70
59391;BME280;53405;57.012;40.984;2023-03-04T07:48:33;98059.00;;;1.79;72.22
59391;BME280;53405;57.012;40.984;2023-03-04T07:51:22;98056.41;;;1.79;71.22
59391;BME280;53405;57.012;40.984;2023-03-04T07:54:11;98064.09;;;1.73;72.62
59391;BME280;53405;57.012;40.984;2023-03-04T07:56:58;98059.84;;;1.72;71.59
59391;BME280;53405;57.012;40.984;2023-03-04T07:59:46;98047.50;;;1.82;71.82
59391;BME280;53405;57.012;40.984;2023-03-04T08:02:33;98061.06;;;2.24;71.50
59391;BME280;53405;57.012;40.984;2023-03-04T08:05:21;98051.00;;;1.97;71.33
59391;BME280;53405;57.012;40.984;2023-03-04T08:08:09;98052.41;;;2.08;72.79
59391;BME280;53405;57.012;40.984;2023-03-04T08:10:56;98054.66;;;2.11;70.14
59391;BME280;53405;57.012;40.984;2023-03-04T08:13:44;98051.72;;;1.75;70.60
59391;BME280;53405;57.012;40.984;2023-03-04T08:16:32;98034.41;;;2.07;69.73
59391;BME280;53405;57.012;40.984;2023-03-04T08:19:19;98045.47;;;2.32;70.32
59391;BME280;53405;57.012;40.984;2023-03-04T08:22:11;98034.72;;;2.35;71.60
59391;BME280;53405;57.012;40.984;2023-03-04T08:24:59;98040.25;;;2.93;68.27
59391;BME280;53405;57.012;40.984;2023-03-04T08:27:47;98038.50;;;3.08;67.46
59391;BME280;53405;57.012;40.984;2023-03-04T08:30:35;98040.47;;;3.21;66.90
59391;BME280;53405;57.012;40.984;2023-03-04T08:33:26;98020.22;;;3.32;66.87
59391;BME280;53405;57.012;40.984;2023-03-04T08:36:14;98033.47;;;3.67;65.24
59391;BME280;53405;57.012;40.984;2023-03-04T08:39:03;98043.88;;;3.96;65.33
59391;BME280;53405;57.012;40.984;2023-03-04T08:41:51;98036.75;;;4.05;64.77
59391;BME280;53405;57.012;40.984;2023-03-04T08:44:38;98035.25;;;3.96;63.48
59391;BME280;53405;57.012;40.984;2023-03-04T08:47:26;98025.28;;;3.85;62.95
59391;BME280;53405;57.012;40.984;2023-03-04T08:50:13;98033.63;;;3.95;61.00
59391;BME280;53405;57.012;40.984;2023-03-04T08:53:00;98030.72;;;3.53;60.90
59391;BME280;53405;57.012;40.984;2023-03-04T08:55:50;98018.84;;;3.66;61.76
59391;BME280;53405;57.012;40.984;2023-03-04T08:58:37;98018.94;;;3.57;64.38
59391;BME280;53405;57.012;40.984;2023-03-04T09:01:25;98016.56;;;3.92;60.90
59391;BME280;53405;57.012;40.984;2023-03-04T09:04:13;98010.31;;;3.72;59.47
59391;BME280;53405;57.012;40.984;2023-03-04T09:07:00;98005.81;;;3.66;60.00
59391;BME280;53405;57.012;40.984;2023-03-04T09:09:48;97999.59;;;3.30;63.08
59391;BME280;53405;57.012;40.984;2023-03-04T09:12:35;97985.16;;;3.13;63.06
59391;BME280;53405;57.012;40.984;2023-03-04T09:15:23;98008.91;;;3.10;61.97
59391;BME280;53405;57.012;40.984;2023-03-04T09:18:12;98002.81;;;3.32;60.54
59391;BME280;53405;57.012;40.984;2023-03-04T09:20:59;97990.72;;;3.39;63.03
59391;BME280;53405;57.012;40.984;2023-03-04T09:23:47;97989.91;;;3.24;58.49
59391;BME280;53405;57.012;40.984;2023-03-04T09:26:34;97997.69;;;3.39;57.94
59391;BME280;53405;57.012;40.984;2023-03-04T09:29:23;97997.25;;;3.35;55.47
59391;BME280;53405;57.012;40.984;2023-03-04T09:32:10;97993.31;;;3.39;57.28
59391;BME280;53405;57.012;40.984;2023-03-04T09:34:58;97982.72;;;3.11;55.01
59391;BME280;53405;57.012;40.984;2023-03-04T09:37:46;97982.97;;;2.86;55.66
59391;BME280;53405;57.012;40.984;2023-03-04T09:40:41;97988.78;;;2.74;58.06
59391;BME280;53405;57.012;40.984;2023-03-04T09:43:30;97986.38;;;2.87;60.08
59391;BME280;53405;57.012;40.984;2023-03-04T09:46:26;97971.50;;;2.81;57.11
59391;BME280;53405;57.012;40.984;2023-03-04T09:49:17;97989.06;;;3.08;58.16
59391;BME280;53405;57.012;40.984;2023-03-04T09:55:33;97965.16;;;2.98;56.98
59391;BME280;53405;57.012;40.984;2023-03-04T10:01:35;97961.53;;;2.99;59.08
59391;BME280;53405;57.012;40.984;2023-03-04T10:04:31;97976.91;;;3.09;56.23
59391;BME280;53405;57.012;40.984;2023-03-04T10:07:41;97966.91;;;2.98;54.95
59391;BME280;53405;57.012;40.984;2023-03-04T10:10:34;97970.78;;;3.17;54.81
59391;BME280;53405;57.012;40.984;2023-03-04T10:17:11;97962.44;;;3.21;57.94
59391;BME280;53405;57.012;40.984;2023-03-04T10:20:23;97954.06;;;3.56;56.69
59391;BME280;53405;57.012;40.984;2023-03-04T10:23:27;97957.31;;;3.58;56.45
59391;BME280;53405;57.012;40.984;2023-03-04T10:26:17;97956.97;;;3.16;57.46
59391;BME280;53405;57.012;40.984;2023-03-04T10:29:12;97937.44;;;3.20;56.07
59391;BME280;53405;57.012;40.984;2023-03-04T10:32:01;97947.25;;;3.55;53.53
59391;BME280;53405;57.012;40.984;2023-03-04T10:34:49;97944.84;;;3.53;53.91
59391;BME280;53405;57.012;40.984;2023-03-04T10:37:50;97948.50;;;3.59;53.25
59391;BME280;53405;57.012;40.984;2023-03-04T10:40:39;97939.38;;;3.18;53.41
59391;BME280;53405;57.012;40.984;2023-03-04T10:43:28;97922.44;;;2.93;55.65
59391;BME280;53405;57.012;40.984;2023-03-04T10:46:16;97947.38;;;3.02;57.45
59391;BME280;53405;57.012;40.984;2023-03-04T10:49:04;97934.19;;;2.88;57.22
59391;BME280;53405;57.012;40.984;2023-03-04T10:52:11;97938.00;;;2.63;57.97
59391;BME280;53405;57.012;40.984;2023-03-04T10:55:05;97935.50;;;2.69;57.19
59391;BME280;53405;57.012;40.984;2023-03-04T10:58:04;97930.84;;;2.50;58.88
59391;BME280;53405;57.012;40.984;2023-03-04T11:01:01;97938.28;;;2.53;58.86
59391;BME280;53405;57.012;40.984;2023-03-04T11:03:50;97940.69;;;2.55;59.90
59391;BME280;53405;57.012;40.984;2023-03-04T11:06:40;97932.63;;;2.49;58.79
59391;BME280;53405;57.012;40.984;2023-03-04T11:09:30;97948.50;;;2.31;61.38
59391;BME280;53405;57.012;40.984;2023-03-04T11:12:31;97955.13;;;1.65;62.55
59391;BME280;53405;57.012;40.984;2023-03-04T11:15:22;97932.22;;;1.37;62.51
59391;BME280;53405;57.012;40.984;2023-03-04T11:18:22;97927.00;;;1.45;64.62
59391;BME280;53405;57.012;40.984;2023-03-04T11:21:16;97926.59;;;1.65;64.29
59391;BME280;53405;57.012;40.984;2023-03-04T11:24:12;97901.91;;;1.92;62.90
59391;BME280;53405;57.012;40.984;2023-03-04T11:33:13;97906.88;;;2.40;60.91
59391;BME280;53405;57.012;40.984;2023-03-04T11:39:51;97902.72;;;2.68;65.06
59391;BME280;53405;57.012;40.984;2023-03-04T11:52:35;97898.31;;;3.14;57.32
59391;BME280;53405;57.012;40.984;2023-03-04T12:14:33;97864.03;;;3.83;54.53
59391;BME280;53405;57.012;40.984;2023-03-04T12:17:33;97868.47;;;4.67;56.44
59391;BME280;53405;57.012;40.984;2023-03-04T12:26:35;97849.47;;;4.74;47.96
59391;BME280;53405;57.012;40.984;2023-03-04T12:36:01;97848.75;;;3.37;55.90
59391;BME280;53405;57.012;40.984;2023-03-04T12:38:58;97844.03;;;3.25;54.76
59391;BME280;53405;57.012;40.984;2023-03-04T12:45:15;97835.69;;;3.15;57.66
59391;BME280;53405;57.012;40.984;2023-03-04T12:48:23;97824.97;;;2.88;58.05
59391;BME280;53405;57.012;40.984;2023-03-04T12:51:26;97816.06;;;2.76;60.58
59391;BME280;53405;57.012;40.984;2023-03-04T12:54:36;97819.63;;;2.75;59.47
59391;BME280;53405;57.012;40.984;2023-03-04T12:57:26;97821.91;;;2.63;59.73
59391;BME280;53405;57.012;40.984;2023-03-04T13:00:30;97814.19;;;2.70;59.95
59391;BME280;53405;57.012;40.984;2023-03-04T13:09:26;97819.56;;;2.39;62.71
59391;BME280;53405;57.012;40.984;2023-03-04T13:12:21;97814.09;;;2.33;60.59
59391;BME280;53405;57.012;40.984;2023-03-04T13:21:46;97800.91;;;2.20;60.87
59391;BME280;53405;57.012;40.984;2023-03-04T13:24:47;97802.16;;;2.24;63.02
59391;BME280;53405;57.012;40.984;2023-03-04T13:27:47;97800.53;;;2.23;60.30
59391;BME280;53405;57.012;40.984;2023-03-04T13:42:37;97790.59;;;2.12;62.36
59391;BME280;53405;57.012;40.984;2023-03-04T13:45:31;97788.78;;;2.12;61.70
59391;BME280;53405;57.012;40.984;2023-03-04T13:48:30;97785.19;;;1.98;63.84
59391;BME280;53405;57.012;40.984;2023-03-04T13:57:16;97778.75;;;1.94;64.38
59391;BME280;53405;57.012;40.984;2023-03-04T14:00:04;97787.09;;;2.05;62.23
59391;BME280;53405;57.012;40.984;2023-03-04T14:03:11;97769.25;;;1.87;63.97
59391;BME280;53405;57.012;40.984;2023-03-04T14:06:22;97783.13;;;1.94;63.16
59391;BME280;53405;57.012;40.984;2023-03-04T14:12:04;97771.06;;;1.86;64.46
59391;BME280;53405;57.012;40.984;2023-03-04T14:15:03;97772.13;;;1.92;62.99
59391;BME280;53405;57.012;40.984;2023-03-04T14:17:54;97769.84;;;1.74;65.35
59391;BME280;53405;57.012;40.984;2023-03-04T14:20:48;97775.31;;;1.79;65.87
59391;BME280;53405;57.012;40.984;2023-03-04T14:23:36;97768.97;;;1.82;65.93
59391;BME280;53405;57.012;40.984;2023-03-04T14:26:24;97740.63;;;1.57;66.90
59391;BME280;53405;57.012;40.984;2023-03-04T14:29:27;97779.09;;;1.53;68.77
59391;BME280;53405;57.012;40.984;2023-03-04T14:32:15;97764.47;;;1.37;70.95
59391;BME280;53405;57.012;40.984;2023-03-04T14:35:06;97777.53;;;1.44;72.03
59391;BME280;53405;57.012;40.984;2023-03-04T14:37:58;97774.84;;;1.37;72.19
59391;BME280;53405;57.012;40.984;2023-03-04T14:41:09;97781.06;;;1.28;72.27
59391;BME280;53405;57.012;40.984;2023-03-04T14:44:35;97777.75;;;1.11;72.98
59391;BME280;53405;57.012;40.984;2023-03-04T14:47:35;97772.84;;;0.93;73.24
59391;BME280;53405;57.012;40.984;2023-03-04T14:50:25;97778.06;;;0.85;73.91
59391;BME280;53405;57.012;40.984;2023-03-04T14:53:18;97777.13;;;0.78;75.60
59391;BME280;53405;57.012;40.984;2023-03-04T14:56:08;97763.50;;;0.76;75.48
59391;BME280;53405;57.012;40.984;2023-03-04T14:58:57;97766.66;;;0.71;76.42
59391;BME280;53405;57.012;40.984;2023-03-04T15:01:45;97772.66;;;0.63;76.38
59391;BME280;53405;57.012;40.984;2023-03-04T15:04:33;97775.94;;;0.57;76.23
59391;BME280;53405;57.012;40.984;2023-03-04T15:07:32;97760.28;;;0.34;76.60
59391;BME280;53405;57.012;40.984;2023-03-04T15:10:29;97771.28;;;0.36;76.83
59391;BME280;53405;57.012;40.984;2023-03-04T15:13:42;97765.81;;;0.31;77.51
59391;BME280;53405;57.012;40.984;2023-03-04T15:16:54;97768.88;;;0.34;78.90
59391;BME280;53405;57.012;40.984;2023-03-04T15:19:42;97759.16;;;0.37;77.55
59391;BME280;53405;57.012;40.984;2023-03-04T15:22:30;97768.41;;;0.31;78.03
59391;BME280;53405;57.012;40.984;2023-03-04T15:25:18;97772.13;;;0.28;78.54
59391;BME280;53405;57.012;40.984;2023-03-04T15:28:14;97772.81;;;0.22;78.26
59391;BME280;53405;57.012;40.984;2023-03-04T15:31:04;97761.81;;;0.12;78.96
59391;BME280;53405;57.012;40.984;2023-03-04T15:33:51;97761.81;;;0.12;78.71
59391;BME280;53405;57.012;40.984;2023-03-04T15:36:39;97764.88;;;0.15;78.61
59391;BME280;53405;57.012;40.984;2023-03-04T15:39:39;97761.94;;;0.18;79.79
59391;BME280;53405;57.012;40.984;2023-03-04T15:42:32;97769.88;;;0.17;78.88
59391;BME280;53405;57.012;40.984;2023-03-04T15:45:32;97763.09;;;0.16;79.13
59391;BME280;53405;57.012;40.984;2023-03-04T15:48:23;97758.91;;;0.15;79.14
59391;BME280;53405;57.012;40.984;2023-03-04T15:51:17;97749.50;;;0.14;78.60
59391;BME280;53405;57.012;40.984;2023-03-04T15:54:10;97756.31;;;0.15;79.26
59391;BME280;53405;57.012;40.984;2023-03-04T15:57:17;97757.44;;;0.12;78.87
59391;BME280;53405;57.012;40.984;2023-03-04T16:00:09;97741.28;;;0.02;79.61
59391;BME280;53405;57.012;40.984;2023-03-04T16:03:00;97753.59;;;0.00;79.62
59391;BME280;53405;57.012;40.984;2023-03-04T16:05:49;97746.94;;;0.06;79.12
59391;BME280;53405;57.012;40.984;2023-03-04T16:08:38;97727.72;;;-0.08;78.95
59391;BME280;53405;57.012;40.984;2023-03-04T16:11:28;97740.00;;;-0.02;79.31
59391;BME280;53405;57.012;40.984;2023-03-04T16:14:17;97734.78;;;0.06;79.15
59391;BME280;53405;57.012;40.984;2023-03-04T16:17:04;97730.47;;;-0.02;78.50
59391;BME280;53405;57.012;40.984;2023-03-04T16:19:54;97728.19;;;0.04;78.64
59391;BME280;53405;57.012;40.984;2023-03-04T16:22:43;97734.81;;;-0.02;78.56
59391;BME280;53405;57.012;40.984;2023-03-04T16:25:32;97723.03;;;-0.13;78.77
59391;BME280;53405;57.012;40.984;2023-03-04T16:28:20;97706.94;;;-0.31;80.86
59391;BME280;53405;57.012;40.984;2023-03-04T16:31:12;97731.97;;;-0.15;79.41
59391;BME280;53405;57.012;40.984;2023-03-04T16:34:00;97715.94;;;-0.19;79.77
59391;BME280;53405;57.012;40.984;2023-03-04T16:36:47;97716.94;;;-0.20;81.11